createdAt,value
2019-01-29T00:01:39.482Z,97.70
2019-01-29T00:04:08.128Z,97.70
2019-01-29T00:06:36.559Z,97.80
2019-01-29T00:09:08.490Z,97.20
2019-01-29T00:11:37.013Z,97.30
2019-01-29T00:14:05.422Z,97.20
2019-01-29T00:16:33.709Z,96.60
2019-01-29T00:19:01.822Z,96.60
2019-01-29T00:21:30.504Z,97.10
2019-01-29T00:23:59.432Z,97.00
2019-01-29T00:26:27.865Z,97.10
2019-01-29T00:28:56.314Z,96.90
2019-01-29T00:31:25.225Z,96.90
2019-01-29T00:33:53.688Z,96.80
2019-01-29T00:36:21.793Z,97.30
2019-01-29T00:38:49.780Z,96.00
2019-01-29T00:41:18.160Z,96.10
2019-01-29T00:43:46.312Z,96.10
2019-01-29T00:46:14.297Z,96.20
2019-01-29T00:48:42.654Z,96.10
2019-01-29T00:51:11.669Z,96.10
2019-01-29T00:53:40.013Z,96.20
2019-01-29T00:56:08.300Z,95.80
2019-01-29T00:58:37.165Z,96.00
2019-01-29T01:01:05.542Z,96.10
2019-01-29T01:03:33.956Z,96.10
2019-01-29T01:06:02.481Z,95.60
2019-01-29T01:08:30.673Z,95.50
2019-01-29T01:10:58.992Z,96.00
2019-01-29T01:13:27.539Z,95.90
2019-01-29T01:15:55.845Z,96.00
2019-01-29T01:18:23.833Z,96.40
2019-01-29T01:20:52.182Z,96.50
2019-01-29T01:23:20.266Z,96.50
2019-01-29T01:25:48.646Z,96.80
2019-01-29T01:28:17.668Z,96.90
2019-01-29T01:30:46.284Z,97.40
2019-01-29T01:33:14.944Z,97.50
2019-01-29T01:35:43.705Z,97.40
2019-01-29T01:38:12.098Z,97.50
2019-01-29T01:40:40.593Z,97.40
2019-01-29T01:43:09.101Z,97.40
2019-01-29T01:45:37.485Z,97.50
2019-01-29T01:48:05.603Z,97.80
2019-01-29T01:50:34.089Z,98.20
2019-01-29T01:53:02.367Z,97.70
2019-01-29T01:55:31.693Z,97.90
2019-01-29T01:57:59.838Z,97.80
2019-01-29T02:00:28.050Z,97.60
2019-01-29T02:02:56.245Z,97.70
2019-01-29T02:05:24.342Z,97.70
2019-01-29T02:07:52.886Z,97.30
2019-01-29T02:10:26.551Z,97.50
2019-01-29T02:12:54.886Z,97.50
2019-01-29T02:15:23.159Z,97.30
2019-01-29T02:17:51.564Z,97.40
2019-01-29T02:20:20.119Z,97.80
2019-01-29T02:22:48.026Z,98.10
2019-01-29T02:25:16.399Z,97.90
2019-01-29T02:27:44.545Z,97.60
2019-01-29T02:30:15.887Z,97.90
2019-01-29T02:32:43.951Z,97.80
2019-01-29T02:35:12.591Z,97.70
2019-01-29T02:37:40.746Z,97.40
2019-01-29T02:40:11.695Z,98.00
2019-01-29T02:42:40.243Z,98.70
2019-01-29T02:45:09.324Z,97.40
2019-01-29T02:47:38.365Z,97.80
2019-01-29T02:50:07.292Z,97.30
2019-01-29T02:52:35.541Z,97.60
2019-01-29T02:55:04.751Z,97.80
2019-01-29T02:57:33.251Z,97.50
2019-01-29T03:00:01.653Z,97.40
2019-01-29T03:02:29.738Z,97.40
2019-01-29T03:04:57.897Z,97.20
2019-01-29T03:07:26.588Z,98.00
2019-01-29T03:09:55.173Z,97.30
2019-01-29T03:12:23.959Z,97.00
2019-01-29T03:14:52.236Z,97.20
2019-01-29T03:17:20.617Z,97.30
2019-01-29T03:19:48.727Z,97.50
2019-01-29T03:22:17.052Z,97.50
2019-01-29T03:24:45.680Z,97.40
2019-01-29T03:27:14.116Z,97.40
2019-01-29T03:29:42.534Z,96.80
2019-01-29T03:32:10.866Z,96.50
2019-01-29T03:34:39.521Z,96.60
2019-01-29T03:37:07.773Z,97.20
2019-01-29T03:39:36.392Z,98.30
2019-01-29T03:42:04.919Z,97.20
2019-01-29T03:44:33.272Z,97.20
2019-01-29T03:47:01.397Z,98.20
2019-01-29T03:49:29.334Z,97.50
2019-01-29T03:51:57.925Z,98.00
2019-01-29T03:54:26.607Z,97.80
2019-01-29T03:56:54.957Z,98.20
2019-01-29T03:59:23.385Z,98.30
2019-01-29T04:01:51.520Z,98.20
2019-01-29T04:04:19.801Z,98.10
2019-01-29T04:06:48.197Z,97.90
2019-01-29T04:09:16.534Z,98.00
2019-01-29T04:11:44.608Z,98.00
2019-01-29T04:14:13.327Z,97.80
2019-01-29T04:16:41.478Z,98.00
2019-01-29T04:19:12.694Z,97.90
2019-01-29T04:21:41.010Z,97.70
2019-01-29T04:24:09.279Z,97.90
2019-01-29T04:26:37.658Z,98.10
2019-01-29T04:29:06.089Z,98.00
2019-01-29T04:31:34.459Z,98.10
2019-01-29T04:34:02.590Z,97.80
2019-01-29T04:36:30.854Z,97.60
2019-01-29T04:38:59.232Z,97.80
2019-01-29T04:41:27.912Z,98.40
2019-01-29T04:43:56.638Z,97.70
2019-01-29T04:46:25.342Z,97.80
2019-01-29T04:48:53.773Z,98.10
2019-01-29T04:51:21.844Z,97.70
2019-01-29T04:53:57.292Z,97.50
2019-01-29T04:56:20.389Z,97.90
2019-01-29T04:59:00.611Z,97.60
2019-01-29T05:01:28.508Z,97.80
2019-01-29T05:03:57.137Z,97.70
2019-01-29T05:06:35.560Z,97.90
2019-01-29T05:09:08.081Z,97.50
2019-01-29T05:11:39.674Z,97.50
2019-01-29T05:14:08.151Z,97.50
2019-01-29T05:16:36.564Z,97.90
2019-01-29T05:19:04.882Z,97.80
2019-01-29T05:21:33.309Z,97.70
2019-01-29T05:24:06.595Z,97.60
2019-01-29T05:26:30.732Z,97.30
2019-01-29T05:28:58.811Z,97.90
2019-01-29T05:31:26.938Z,97.80
2019-01-29T05:33:54.652Z,97.70
2019-01-29T05:36:23.160Z,97.90
2019-01-29T05:38:50.853Z,97.70
2019-01-29T05:41:18.518Z,97.70
2019-01-29T05:43:46.715Z,97.60
2019-01-29T05:46:14.647Z,98.10
2019-01-29T05:48:42.750Z,98.20
2019-01-29T05:51:10.754Z,98.10
2019-01-29T05:53:38.457Z,98.20
2019-01-29T05:56:06.330Z,98.10
2019-01-29T05:58:34.403Z,98.00
2019-01-29T06:01:03.109Z,98.20
2019-01-29T06:03:31.164Z,98.20
2019-01-29T06:05:59.590Z,98.20
2019-01-29T06:08:27.717Z,98.40
2019-01-29T06:10:55.977Z,98.60
2019-01-29T06:13:24.404Z,98.60
2019-01-29T06:15:52.482Z,98.50
2019-01-29T06:18:21.088Z,98.60
2019-01-29T06:20:49.795Z,98.80
2019-01-29T06:23:18.093Z,98.80
2019-01-29T06:25:46.289Z,98.50
2019-01-29T06:28:14.387Z,98.50
2019-01-29T06:30:44.111Z,98.60
2019-01-29T06:33:13.026Z,98.60
2019-01-29T06:35:40.989Z,98.40
2019-01-29T06:38:09.730Z,98.30
2019-01-29T06:40:37.918Z,98.00
2019-01-29T06:43:06.421Z,98.10
2019-01-29T06:45:35.155Z,97.80
2019-01-29T06:48:04.291Z,98.20
2019-01-29T06:50:32.357Z,98.30
2019-01-29T06:53:03.608Z,98.20
2019-01-29T06:55:32.151Z,97.80
2019-01-29T06:58:00.599Z,98.10
2019-01-29T07:00:30.156Z,97.90
2019-01-29T07:03:03.362Z,98.30
2019-01-29T07:05:31.561Z,98.80
2019-01-29T07:08:04.117Z,98.20
2019-01-29T07:10:33.430Z,98.20
2019-01-29T07:13:09.075Z,97.80
2019-01-29T07:15:55.111Z,98.20
2019-01-29T07:18:36.537Z,97.90
2019-01-29T07:21:07.289Z,98.20
2019-01-29T07:23:36.652Z,98.10
2019-01-29T07:26:06.362Z,97.90
2019-01-29T07:28:34.582Z,98.00
2019-01-29T07:31:03.124Z,97.90
2019-01-29T07:33:31.578Z,97.90
2019-01-29T07:35:59.883Z,98.30
2019-01-29T07:38:28.278Z,98.10
2019-01-29T07:40:56.599Z,97.90
2019-01-29T07:43:24.997Z,98.00
2019-01-29T07:45:53.391Z,98.40
2019-01-29T07:48:21.722Z,98.40
2019-01-29T07:50:50.388Z,98.10
2019-01-29T07:53:18.678Z,98.20
2019-01-29T07:55:47.441Z,98.10
2019-01-29T07:58:15.367Z,97.40
2019-01-29T08:00:43.606Z,97.10
2019-01-29T08:03:12.092Z,96.50
2019-01-29T08:05:40.500Z,97.00
2019-01-29T08:08:08.762Z,96.60
2019-01-29T08:10:36.722Z,96.90
2019-01-29T08:13:05.329Z,96.10
2019-01-29T08:15:37.560Z,95.80
2019-01-29T08:18:08.580Z,95.60
2019-01-29T08:20:37.033Z,95.30
2019-01-29T08:23:05.679Z,95.40
2019-01-29T08:25:35.325Z,95.50
2019-01-29T08:28:04.616Z,95.60
2019-01-29T08:30:32.887Z,94.80
2019-01-29T08:33:01.860Z,95.40
2019-01-29T08:35:33.069Z,94.90
2019-01-29T08:38:01.826Z,94.70
2019-01-29T08:40:33.815Z,94.30
2019-01-29T08:43:02.622Z,94.40
2019-01-29T08:45:34.528Z,94.50
2019-01-29T08:48:04.143Z,94.10
2019-01-29T08:50:33.826Z,93.80
2019-01-29T08:53:01.919Z,93.80
2019-01-29T08:55:30.348Z,94.30
2019-01-29T08:58:01.335Z,93.80
2019-01-29T09:00:29.090Z,93.30
2019-01-29T09:03:00.477Z,92.20
2019-01-29T09:05:29.551Z,91.70
2019-01-29T09:07:58.155Z,90.20
2019-01-29T09:10:27.697Z,88.70
2019-01-29T09:13:03.226Z,88.50
2019-01-29T09:15:31.775Z,84.40
2019-01-29T09:18:00.976Z,76.90
2019-01-29T09:20:28.848Z,72.00
2019-01-29T09:22:57.059Z,67.90
2019-01-29T09:25:25.472Z,68.40
2019-01-29T09:27:54.093Z,66.10
2019-01-29T09:30:22.415Z,65.00
2019-01-29T09:32:51.681Z,67.90
2019-01-29T09:35:20.300Z,67.50
2019-01-29T09:37:48.569Z,65.40
2019-01-29T09:40:17.948Z,61.10
2019-01-29T09:42:46.038Z,59.20
2019-01-29T09:45:15.776Z,57.40
2019-01-29T09:47:46.270Z,58.10
2019-01-29T09:50:18.812Z,60.60
2019-01-29T09:52:48.195Z,59.30
2019-01-29T09:55:17.607Z,57.00
2019-01-29T09:57:45.471Z,57.10
2019-01-29T10:00:17.528Z,55.60
2019-01-29T10:02:46.218Z,55.70
2019-01-29T10:05:15.203Z,54.50
2019-01-29T10:07:44.165Z,54.50
2019-01-29T10:10:12.656Z,54.10
2019-01-29T10:12:41.098Z,54.20
2019-01-29T10:15:11.715Z,54.40
2019-01-29T10:17:39.810Z,54.30
2019-01-29T10:20:08.324Z,52.80
2019-01-29T10:22:37.027Z,52.40
2019-01-29T10:25:06.442Z,51.60
2019-01-29T10:27:34.900Z,52.90
2019-01-29T10:30:03.873Z,51.50
2019-01-29T10:32:32.220Z,52.50
2019-01-29T10:35:00.387Z,52.00
2019-01-29T10:37:30.021Z,52.00
2019-01-29T10:39:58.083Z,52.10
2019-01-29T10:42:26.729Z,52.00
2019-01-29T10:44:54.804Z,50.20
2019-01-29T10:47:23.725Z,48.90
2019-01-29T10:49:51.931Z,48.70
2019-01-29T10:52:20.436Z,50.00
2019-01-29T10:54:48.887Z,51.10
2019-01-29T10:57:17.284Z,50.80
2019-01-29T10:59:45.961Z,52.50
2019-01-29T11:02:23.587Z,52.90
2019-01-29T11:04:56.721Z,53.40
2019-01-29T11:07:25.471Z,53.40
2019-01-29T11:09:53.677Z,53.60
2019-01-29T11:12:22.323Z,53.60
2019-01-29T11:14:50.477Z,54.00
2019-01-29T11:17:18.722Z,53.80
2019-01-29T11:19:47.308Z,53.70
2019-01-29T11:22:15.261Z,54.10
2019-01-29T11:24:45.086Z,55.00
2019-01-29T11:27:13.321Z,55.70
2019-01-29T11:29:41.905Z,53.70
2019-01-29T11:32:10.565Z,55.20
2019-01-29T11:34:39.507Z,57.00
2019-01-29T11:37:07.673Z,57.00
2019-01-29T11:39:35.801Z,56.50
2019-01-29T11:42:04.250Z,56.90
2019-01-29T11:44:32.235Z,58.80
2019-01-29T11:47:01.014Z,58.40
2019-01-29T11:49:29.181Z,56.40
2019-01-29T11:51:57.890Z,57.80
2019-01-29T11:54:25.993Z,58.70
2019-01-29T11:56:54.653Z,57.30
2019-01-29T11:59:23.323Z,58.60
2019-01-29T12:01:51.821Z,59.30
2019-01-29T12:04:19.775Z,58.90
2019-01-29T12:06:48.217Z,58.20
2019-01-29T12:09:16.672Z,59.20
2019-01-29T12:11:44.725Z,58.40
2019-01-29T12:14:13.055Z,57.70
2019-01-29T12:16:41.140Z,59.20
2019-01-29T12:19:09.399Z,58.70
2019-01-29T12:21:37.955Z,58.20
2019-01-29T12:24:06.012Z,58.10
2019-01-29T12:26:34.698Z,57.70
2019-01-29T12:29:03.456Z,58.10
2019-01-29T12:31:31.661Z,59.90
2019-01-29T12:34:00.017Z,58.80
2019-01-29T12:36:28.378Z,58.80
2019-01-29T12:38:56.580Z,60.00
2019-01-29T12:41:25.265Z,60.00
2019-01-29T12:43:54.080Z,60.00
2019-01-29T12:46:22.470Z,60.60
2019-01-29T12:48:50.865Z,60.00
2019-01-29T12:51:29.300Z,59.90
2019-01-29T12:53:57.434Z,61.10
2019-01-29T12:56:26.445Z,60.60
2019-01-29T12:58:54.902Z,60.40
2019-01-29T13:01:23.522Z,59.60
2019-01-29T13:03:51.982Z,60.30
2019-01-29T13:06:20.863Z,61.70
2019-01-29T13:08:49.365Z,63.40
2019-01-29T13:11:17.638Z,63.50
2019-01-29T13:13:46.091Z,62.10
2019-01-29T13:16:14.112Z,61.90
2019-01-29T13:18:42.833Z,62.60
2019-01-29T13:21:12.331Z,62.70
2019-01-29T13:23:40.800Z,64.00
2019-01-29T13:26:09.438Z,63.30
2019-01-29T13:28:37.537Z,63.20
2019-01-29T13:31:06.058Z,62.70
2019-01-29T13:33:34.717Z,62.50
2019-01-29T13:36:07.332Z,63.50
2019-01-29T13:38:35.932Z,63.80
2019-01-29T13:41:04.053Z,64.10
2019-01-29T13:43:31.918Z,64.00
2019-01-29T13:46:00.300Z,64.80
2019-01-29T13:48:28.824Z,64.90
2019-01-29T13:50:59.621Z,64.40
2019-01-29T13:53:27.592Z,64.00
2019-01-29T13:55:55.958Z,64.50
2019-01-29T13:58:24.865Z,66.40
2019-01-29T14:00:53.234Z,65.20
2019-01-29T14:03:21.330Z,65.10
2019-01-29T14:05:49.672Z,65.30
2019-01-29T14:08:18.075Z,65.00
2019-01-29T14:10:46.435Z,64.40
2019-01-29T14:13:15.078Z,65.50
2019-01-29T14:15:51.962Z,67.50
2019-01-29T14:18:22.116Z,67.10
2019-01-29T14:20:50.465Z,67.00
2019-01-29T14:23:19.236Z,68.50
2019-01-29T14:25:47.749Z,68.00
2019-01-29T14:28:16.113Z,67.50
2019-01-29T14:30:44.809Z,67.60
2019-01-29T14:33:13.186Z,67.20
2019-01-29T14:35:44.579Z,68.80
2019-01-29T14:38:47.155Z,67.00
2019-01-29T14:41:17.385Z,67.80
2019-01-29T14:43:47.615Z,67.10
2019-01-29T14:46:16.293Z,67.30
2019-01-29T14:48:44.593Z,68.30
2019-01-29T14:51:13.171Z,69.30
2019-01-29T14:53:41.632Z,68.90
2019-01-29T14:56:10.985Z,69.20
2019-01-29T14:58:40.366Z,70.30
2019-01-29T15:01:08.476Z,70.00
2019-01-29T15:03:36.917Z,69.50
2019-01-29T15:06:05.014Z,70.30
2019-01-29T15:08:33.373Z,70.90
2019-01-29T15:11:01.295Z,70.70
2019-01-29T15:13:29.945Z,72.40
2019-01-29T15:16:06.509Z,71.90
2019-01-29T15:18:38.325Z,73.30
2019-01-29T15:21:06.485Z,72.10
2019-01-29T15:23:34.694Z,72.60
2019-01-29T15:26:02.582Z,72.80
2019-01-29T15:28:30.657Z,73.90
2019-01-29T15:30:58.827Z,73.60
2019-01-29T15:33:27.125Z,73.30
2019-01-29T15:35:55.166Z,73.30
2019-01-29T15:38:23.340Z,73.40
2019-01-29T15:40:54.609Z,74.10
2019-01-29T15:43:22.463Z,73.80
2019-01-29T15:45:50.195Z,73.70
2019-01-29T15:48:18.094Z,75.40
2019-01-29T15:50:46.478Z,75.00
2019-01-29T15:53:15.361Z,75.90
2019-01-29T15:55:43.296Z,76.50
2019-01-29T15:58:11.717Z,75.60
2019-01-29T16:00:39.852Z,77.00
2019-01-29T16:03:08.063Z,79.40
2019-01-29T16:05:36.656Z,77.50
2019-01-29T16:08:06.212Z,77.60
2019-01-29T16:10:39.870Z,78.80
2019-01-29T16:13:05.302Z,78.50
2019-01-29T16:15:35.095Z,78.10
2019-01-29T16:18:03.659Z,78.40
2019-01-29T16:20:31.743Z,78.80
2019-01-29T16:22:59.668Z,78.10
2019-01-29T16:25:28.229Z,79.20
2019-01-29T16:27:58.551Z,78.80
2019-01-29T16:30:27.157Z,79.40
2019-01-29T16:32:55.668Z,79.20
2019-01-29T16:35:29.305Z,79.70
2019-01-29T16:37:58.103Z,79.10
2019-01-29T16:40:26.566Z,79.50
2019-01-29T16:42:56.570Z,80.20
2019-01-29T16:45:29.568Z,80.20
2019-01-29T16:47:58.340Z,81.70
2019-01-29T16:50:26.705Z,82.20
2019-01-29T16:52:54.761Z,84.70
2019-01-29T16:55:23.053Z,85.20
2019-01-29T16:57:51.668Z,86.90
2019-01-29T17:00:23.323Z,89.50
2019-01-29T17:02:51.767Z,90.60
2019-01-29T17:05:20.150Z,91.60
2019-01-29T17:07:48.644Z,92.10
2019-01-29T17:10:17.426Z,93.00
2019-01-29T17:12:45.314Z,93.70
2019-01-29T17:15:17.025Z,94.60
2019-01-29T17:17:45.129Z,96.20
2019-01-29T17:20:16.097Z,96.60
2019-01-29T17:22:44.553Z,96.90
2019-01-29T17:25:13.325Z,97.60
2019-01-29T17:27:42.034Z,98.00
2019-01-29T17:30:20.854Z,98.80
2019-01-29T17:32:51.073Z,98.90
2019-01-29T17:35:20.684Z,98.70
2019-01-29T17:37:49.391Z,99.50
2019-01-29T17:40:17.832Z,99.90
2019-01-29T17:42:46.206Z,99.90
2019-01-29T17:45:26.013Z,99.80
2019-01-29T17:47:54.535Z,99.90
2019-01-29T17:50:25.680Z,99.90
2019-01-29T17:52:54.319Z,99.90
2019-01-29T17:55:22.824Z,99.90
2019-01-29T17:57:51.443Z,99.90
2019-01-29T18:00:23.028Z,99.90
2019-01-29T18:02:51.128Z,99.90
2019-01-29T18:05:19.350Z,99.90
2019-01-29T18:07:47.468Z,99.90
2019-01-29T18:10:15.967Z,99.90
2019-01-29T18:12:44.843Z,99.90
2019-01-29T18:15:16.001Z,99.90
2019-01-29T18:17:48.133Z,99.90
2019-01-29T18:20:15.889Z,99.90
2019-01-29T18:22:44.103Z,99.90
2019-01-29T18:25:13.540Z,99.90
2019-01-29T18:27:42.549Z,99.90
2019-01-29T18:30:14.613Z,99.90
2019-01-29T18:32:44.514Z,99.90
2019-01-29T18:35:13.111Z,99.90
2019-01-29T18:37:41.182Z,99.90
2019-01-29T18:40:11.984Z,99.90
2019-01-29T18:42:42.344Z,99.90
2019-01-29T18:45:10.913Z,99.90
2019-01-29T18:47:39.299Z,99.90
2019-01-29T18:50:08.990Z,99.90
2019-01-29T18:52:37.888Z,99.90
2019-01-29T18:55:06.593Z,99.90
2019-01-29T18:57:35.385Z,99.90
2019-01-29T19:00:04.495Z,99.90
2019-01-29T19:02:32.687Z,99.90
2019-01-29T19:05:01.312Z,99.60
2019-01-29T19:07:29.743Z,99.40
2019-01-29T19:09:58.837Z,99.40
2019-01-29T19:12:27.282Z,99.00
2019-01-29T19:14:55.518Z,99.40
2019-01-29T19:17:24.031Z,98.90
2019-01-29T19:19:52.890Z,99.00
2019-01-29T19:22:22.737Z,98.40
2019-01-29T19:24:51.429Z,98.40
2019-01-29T19:27:19.544Z,98.00
2019-01-29T19:29:47.574Z,98.10
2019-01-29T19:32:15.877Z,98.20
2019-01-29T19:34:44.360Z,97.90
2019-01-29T19:37:12.745Z,97.70
2019-01-29T19:39:41.187Z,97.50
2019-01-29T19:42:09.164Z,97.50
2019-01-29T19:44:37.835Z,97.40
2019-01-29T19:47:06.220Z,97.50
2019-01-29T19:49:34.289Z,97.00
2019-01-29T19:52:02.657Z,96.70
2019-01-29T19:54:32.306Z,96.50
2019-01-29T19:57:00.890Z,97.30
2019-01-29T19:59:29.319Z,96.80
2019-01-29T20:01:58.331Z,96.30
2019-01-29T20:04:27.744Z,96.50
2019-01-29T20:06:55.834Z,96.40
2019-01-29T20:09:24.239Z,96.30
2019-01-29T20:11:52.717Z,96.20
2019-01-29T20:14:21.120Z,96.00
2019-01-29T20:16:49.208Z,95.70
2019-01-29T20:19:17.620Z,95.70
2019-01-29T20:21:46.289Z,95.90
2019-01-29T20:24:16.942Z,95.70
2019-01-29T20:26:44.907Z,95.50
2019-01-29T20:29:13.541Z,95.50
2019-01-29T20:31:42.265Z,95.80
2019-01-29T20:34:10.651Z,96.00
2019-01-29T20:36:38.964Z,95.50
2019-01-29T20:39:08.798Z,95.50
2019-01-29T20:41:36.993Z,95.50
2019-01-29T20:44:05.138Z,95.40
2019-01-29T20:46:33.440Z,95.60
2019-01-29T20:49:01.722Z,95.00
2019-01-29T20:51:29.765Z,95.50
2019-01-29T20:53:58.329Z,95.30
2019-01-29T20:56:26.421Z,95.20
2019-01-29T20:58:54.704Z,95.00
2019-01-29T21:01:23.062Z,95.10
2019-01-29T21:03:51.247Z,94.90
2019-01-29T21:06:19.850Z,95.10
2019-01-29T21:08:47.907Z,95.10
2019-01-29T21:11:16.348Z,94.70
2019-01-29T21:13:44.952Z,94.80
2019-01-29T21:16:13.337Z,94.70
2019-01-29T21:18:42.115Z,94.70
2019-01-29T21:21:12.014Z,94.40
2019-01-29T21:23:40.459Z,94.50
2019-01-29T21:26:08.905Z,94.50
2019-01-29T21:28:37.122Z,94.40
2019-01-29T21:31:05.462Z,94.00
2019-01-29T21:33:33.849Z,93.40
2019-01-29T21:36:02.605Z,93.20
2019-01-29T21:38:31.104Z,93.20
2019-01-29T21:40:59.079Z,92.70
2019-01-29T21:43:27.685Z,91.60
2019-01-29T21:45:55.712Z,91.70
2019-01-29T21:48:23.617Z,91.60
2019-01-29T21:50:52.286Z,91.10
2019-01-29T21:53:20.513Z,90.80
2019-01-29T21:55:48.944Z,90.80
2019-01-29T21:58:17.054Z,90.60
2019-01-29T22:00:45.618Z,90.40
2019-01-29T22:03:14.723Z,90.10
2019-01-29T22:05:42.781Z,90.20
2019-01-29T22:08:11.458Z,90.40
2019-01-29T22:10:40.072Z,88.90
2019-01-29T22:13:10.725Z,89.60
2019-01-29T22:15:39.036Z,88.90
2019-01-29T22:18:08.972Z,89.30
2019-01-29T22:20:37.662Z,89.90
2019-01-29T22:23:05.651Z,90.50
2019-01-29T22:25:35.757Z,90.50
2019-01-29T22:28:04.659Z,90.60
2019-01-29T22:30:34.281Z,90.60
2019-01-29T22:33:02.954Z,90.60
2019-01-29T22:35:31.036Z,90.90
2019-01-29T22:37:59.293Z,90.50
2019-01-29T22:40:28.164Z,90.50
2019-01-29T22:42:56.996Z,90.40
2019-01-29T22:45:25.137Z,90.40
2019-01-29T22:47:53.483Z,90.50
2019-01-29T22:50:27.341Z,90.30
2019-01-29T22:52:55.793Z,90.60
2019-01-29T22:55:24.168Z,91.30
2019-01-29T22:57:52.848Z,91.20
2019-01-29T23:00:52.929Z,91.70
2019-01-29T23:03:26.502Z,91.70
2019-01-29T23:06:20.351Z,92.50
2019-01-29T23:08:48.769Z,91.40
2019-01-29T23:11:17.132Z,91.20
2019-01-29T23:13:45.812Z,90.70
2019-01-29T23:16:14.291Z,90.40
2019-01-29T23:18:42.904Z,90.80
2019-01-29T23:21:11.358Z,90.00
2019-01-29T23:23:39.607Z,90.40
2019-01-29T23:26:07.968Z,90.30
2019-01-29T23:28:36.376Z,90.50
2019-01-29T23:31:05.245Z,90.70
2019-01-29T23:33:33.764Z,91.10
2019-01-29T23:36:02.518Z,91.10
2019-01-29T23:38:30.495Z,91.20
2019-01-29T23:40:58.890Z,91.10
2019-01-29T23:43:27.254Z,91.40
2019-01-29T23:45:55.398Z,91.50
2019-01-29T23:48:23.692Z,91.50
2019-01-29T23:50:52.060Z,92.10
2019-01-29T23:53:20.468Z,92.10
2019-01-29T23:55:48.622Z,92.60
2019-01-29T23:58:16.616Z,92.90
